Aérodrome :
LOGIN :

S'inscrire | Disclaimer

   EN    FR    IT 

 










Légende :    VFR   VFR Marginal   IFR   IFR Intensif   IFR Très Intensif
Visi : 
Plafond : 
>= 8 km
>= 3000ft
5 à 8 km
1000 à 3000 ft
1500m à 5 km
500 à 1000 ft
800 à 1500m
200 à 500 ft
< 800m
< 200 ft
Symboles :   Orages  Brouillard  Fortes neiges  Fortes précipitations  Vent > 20 kt
SIGMETs :   Divers  Orages  Givrage  Turbulence  Onde Orograph.  Cendres Volcan.







- Altitude de l'aérodrome : 2026 ft
- Code IATA : TOJ


LETO - Madrid Torrejon

DERNIER METAR :
  • 182000Z 06006KT 7000 RA SCT012 BKN025 10/10 Q1004 NOSIG

METARs EXPIRÉS :
  • 181920Z 07007KT 7000 RA BKN025 10/10 Q1004 NOSIG
  • 181900Z 06005KT 8000 -RA SCT030 BKN045 11/10 Q1004 NOSIG
  • 181834Z 05005KT 8000 -RA SCT030 BKN045 10/10 Q1004 NOSIG
  • 181800Z 04005KT 7000 RA SCT030 BKN045 10/10 Q1004 NOSIG

TAF TAF LETO
Valide du 18 à 18h jusqu'au 19 à 18h UTC


181700Z 1818/1918 10007KT 9999 BKN020 BKN030 TX14/1915Z TN08/1906Z
TEMPO 1818/1905 3000 RA BKN012
BECMG 1900/1902 02008KT
Pas de NOTAMs connus pour ce terrain.
1 SIGMET publié pour la FIR Madrid (LECM) :
 
Orages noyés dans la masse
LECM SIGMET 9 VALID 181800/182000 LEVA
LECM MADRID FIR/UIR EMBD TS OBS AT 1745Z WI N3751 W00327 - N3549 W00456 - N3546 W002 - N3754 W00132 - N3751 W00327 TOP FL380 MOV NE NC=



MET'MAP, la Météo Aéronautique d'un coup d'oeil ! - Copyright ORBIFLY Décembre 2007 - Disclaimer

ORBIFLY MET'MAP TEAM :

Programmation & Développement : Alexandra Zaïnal
Conception & Développement : Baudouin d'Aumeries
Co-Programmation & Développement : Marc-Olivier Méhu
Soutien technique & logistique : Manuel Goepfert

Contact : metmap@orbifly.com




SOURCES & CREDITS :

   NOAA